Time;durP1;ratioP1;P1;durP2;ratioP2;P2;SDS_P1;SDS_P2;PMS_P1;PMS_P2;Temp;Humidity;BMP_temperature;BMP_pressure;BME280_temperature;BME280_humidity;BME280_pressure;Samples;Min_cycle;Max_cycle;Signal;HPM_P1;HPM_P2
2022/04/14 00:00:18;;;;;;;4.30;2.50;;;;;;;4.99;83.98;99758.19;109514;1274;22476;-60
2022/04/14 00:02:46;;;;;;;11.50;4.10;;;;;;;4.99;83.79;99754.83;109459;1276;22446;-60
2022/04/14 00:05:14;;;;;;;5.00;2.40;;;;;;;4.99;83.77;99755.33;109503;1274;22484;-60
2022/04/14 00:07:44;;;;;;;4.00;2.20;;;;;;;5.00;83.50;99750.75;109493;1274;22345;-60
2022/04/14 00:10:32;;;;;;;7.10;2.40;;;;;;;5.02;83.25;99749.41;109459;1274;23208;-60
2022/04/14 00:13:01;;;;;;;8.10;2.30;;;;;;;5.03;83.39;99746.96;109438;1276;22401;-60
2022/04/14 00:15:50;;;;;;;7.60;2.30;;;;;;;5.04;82.88;99744.70;109498;1274;22954;-60
2022/04/14 00:18:18;;;;;;;8.10;3.10;;;;;;;5.05;82.91;99750.88;109510;1276;22512;-60
2022/04/14 00:20:46;;;;;;;4.40;1.70;;;;;;;5.06;82.55;99752.41;109496;1274;22574;-60
2022/04/14 00:23:14;;;;;;;6.00;1.90;;;;;;;5.08;82.32;99748.66;109560;1274;23148;-60
2022/04/14 00:25:53;;;;;;;4.70;2.00;;;;;;;5.10;82.49;99747.20;109543;1274;22399;-60
2022/04/14 00:28:23;;;;;;;5.30;1.60;;;;;;;5.11;82.27;99748.98;109489;1276;22581;-60
2022/04/14 00:30:51;;;;;;;5.80;1.80;;;;;;;5.13;81.80;99751.54;109509;1274;22438;-60
2022/04/14 00:33:22;;;;;;;3.10;1.80;;;;;;;5.12;81.62;99751.83;109512;1275;22587;-60
2022/04/14 00:35:50;;;;;;;4.10;1.80;;;;;;;5.12;81.54;99750.05;109486;1276;22425;-60
2022/04/14 00:38:18;;;;;;;4.80;1.50;;;;;;;5.14;81.24;99750.33;109521;1274;23266;-60
2022/04/14 00:40:52;;;;;;;3.00;1.40;;;;;;;5.15;81.10;99748.25;109530;1276;22379;-60
2022/04/14 00:43:28;;;;;;;3.50;1.40;;;;;;;5.15;80.87;99749.29;109524;1276;22408;-60
2022/04/14 00:45:57;;;;;;;2.80;1.40;;;;;;;5.16;80.83;99753.52;109504;1274;22381;-60
2022/04/14 00:48:28;;;;;;;1.90;1.20;;;;;;;5.16;80.33;99756.06;109271;1277;22241;-60
2022/04/14 00:50:57;;;;;;;2.20;1.20;;;;;;;5.16;80.37;99757.05;109515;1274;22537;-60
2022/04/14 00:53:26;;;;;;;4.70;1.50;;;;;;;5.17;80.21;99755.48;109414;1275;22404;-60
2022/04/14 00:56:00;;;;;;;5.60;1.40;;;;;;;5.18;80.14;99755.39;109373;1276;22384;-60
2022/04/14 00:58:30;;;;;;;2.90;1.30;;;;;;;5.18;80.07;99752.77;109482;1275;22609;-60
2022/04/14 01:01:05;;;;;;;1.80;1.30;;;;;;;5.20;79.78;99756.63;109375;1276;22374;-60
2022/04/14 01:03:34;;;;;;;2.80;1.40;;;;;;;5.20;79.30;99756.05;109485;1276;22398;-60
2022/04/14 01:06:03;;;;;;;2.40;1.30;;;;;;;5.21;79.25;99757.88;109533;1274;22525;-60
2022/04/14 01:08:34;;;;;;;3.30;1.30;;;;;;;5.22;78.89;99757.95;109511;1274;23113;-60
2022/04/14 01:11:02;;;;;;;1.80;1.20;;;;;;;5.22;79.05;99758.20;109522;1274;22398;-60
2022/04/14 01:13:47;;;;;;;4.40;1.60;;;;;;;5.22;78.76;99761.37;109418;1276;23182;-60
2022/04/14 01:16:15;;;;;;;1.40;1.00;;;;;;;5.23;78.81;99757.83;109505;1274;23317;-60
2022/04/14 01:19:00;;;;;;;2.00;1.10;;;;;;;5.24;78.47;99760.20;109481;1275;22251;-60
2022/04/14 01:21:33;;;;;;;2.50;1.20;;;;;;;5.25;78.34;99760.32;109491;1274;23217;-60
2022/04/14 01:24:02;;;;;;;4.90;1.70;;;;;;;5.25;78.06;99758.56;109498;1274;22394;-60
2022/04/14 01:26:31;;;;;;;4.60;1.40;;;;;;;5.26;77.91;99755.07;109350;1276;22409;-60
2022/04/14 01:29:00;;;;;;;5.30;1.30;;;;;;;5.27;77.85;99751.70;109506;1276;22391;-60
2022/04/14 01:31:29;;;;;;;5.10;1.40;;;;;;;5.28;77.59;99754.27;109493;1275;22426;-60
2022/04/14 01:33:57;;;;;;;2.30;1.30;;;;;;;5.29;77.36;99753.98;109532;1275;22255;-60
2022/04/14 01:36:45;;;;;;;4.40;1.40;;;;;;;5.30;76.96;99750.52;109518;1274;22420;-60
2022/04/14 01:39:14;;;;;;;2.20;1.20;;;;;;;5.31;77.04;99745.86;109480;1274;23058;-60
2022/04/14 01:41:42;;;;;;;1.90;1.10;;;;;;;5.33;76.88;99747.23;109337;1276;22388;-60
2022/04/14 01:44:11;;;;;;;4.10;1.50;;;;;;;5.36;76.60;99738.61;108528;1277;22739;-60
2022/04/14 01:46:41;;;;;;;2.10;1.20;;;;;;;5.37;76.38;99744.39;109493;1275;23398;-60
2022/04/14 01:49:09;;;;;;;4.80;1.70;;;;;;;5.37;76.42;99744.77;109520;1276;22449;-61
2022/04/14 01:51:37;;;;;;;2.30;1.20;;;;;;;5.37;76.18;99748.45;109477;1276;22453;-61
2022/04/14 01:54:05;;;;;;;3.10;1.20;;;;;;;5.38;76.00;99752.16;109530;1274;22408;-60
2022/04/14 01:56:35;;;;;;;2.20;1.20;;;;;;;5.38;76.01;99752.11;109526;1274;22356;-60
2022/04/14 01:59:03;;;;;;;6.50;1.70;;;;;;;5.39;75.49;99757.85;109537;1276;22719;-61
2022/04/14 02:01:32;;;;;;;1.90;1.60;;;;;;;5.38;75.66;99766.66;109493;1274;22487;-60
2022/04/14 02:04:07;;;;;;;2.00;1.30;;;;;;;5.39;75.37;99775.40;109522;1276;22576;-61
2022/04/14 02:06:35;;;;;;;3.80;1.00;;;;;;;5.40;75.40;99777.67;109498;1276;22481;-64
2022/04/14 02:09:05;;;;;;;3.90;1.40;;;;;;;5.38;74.96;99775.31;109461;1274;23763;-64
2022/04/14 02:11:33;;;;;;;5.30;1.00;;;;;;;5.37;74.96;99779.59;109376;1276;22475;-64
2022/04/14 02:14:02;;;;;;;2.50;1.60;;;;;;;5.37;74.59;99783.75;109489;1276;22872;-64
2022/04/14 02:16:30;;;;;;;1.40;1.00;;;;;;;5.37;74.85;99787.00;109504;1274;22420;-64
2022/04/14 02:18:59;;;;;;;4.50;1.00;;;;;;;5.36;74.69;99786.09;109540;1272;22420;-64
2022/04/14 02:21:29;;;;;;;3.10;1.60;;;;;;;5.35;74.37;99781.02;109389;1277;22549;-64
2022/04/14 02:23:57;;;;;;;3.50;0.90;;;;;;;5.34;74.14;99781.70;109514;1274;22401;-64
2022/04/14 02:26:26;;;;;;;1.60;0.90;;;;;;;5.30;73.91;99785.90;109539;1274;23351;-64
2022/04/14 02:28:55;;;;;;;1.50;1.00;;;;;;;5.28;74.10;99789.14;109549;1274;22705;-64
2022/04/14 02:31:23;;;;;;;3.50;1.10;;;;;;;5.26;74.21;99792.19;109513;1274;22511;-64
2022/04/14 02:33:51;;;;;;;4.70;1.10;;;;;;;5.24;74.17;99793.31;109541;1274;22432;-64
2022/04/14 02:36:20;;;;;;;3.40;1.30;;;;;;;5.23;74.19;99789.23;109491;1274;22453;-60
2022/04/14 02:38:48;;;;;;;2.10;1.10;;;;;;;5.22;73.90;99788.46;109509;1274;22402;-60
2022/04/14 02:41:16;;;;;;;1.40;0.90;;;;;;;5.22;74.18;99793.33;109501;1274;23461;-60
2022/04/14 02:43:44;;;;;;;3.70;0.90;;;;;;;5.23;73.83;99794.73;109522;1274;22390;-61
2022/04/14 02:46:12;;;;;;;1.30;0.80;;;;;;;5.24;73.95;99789.53;109485;1276;22294;-61
2022/04/14 02:48:40;;;;;;;2.40;1.10;;;;;;;5.25;73.95;99793.73;109541;1272;22421;-61
2022/04/14 02:51:09;;;;;;;2.10;0.90;;;;;;;5.25;73.61;99797.67;109382;1277;22528;-60
2022/04/14 02:53:44;;;;;;;6.30;1.60;;;;;;;5.25;73.63;99796.96;109511;1274;22458;-60
2022/04/14 02:56:12;;;;;;;1.10;0.80;;;;;;;5.26;73.03;99794.19;109485;1275;22428;-61
2022/04/14 02:58:41;;;;;;;2.70;1.10;;;;;;;5.26;73.47;99803.23;109522;1274;23467;-61
2022/04/14 03:01:09;;;;;;;2.70;1.20;;;;;;;5.24;72.81;99797.84;109493;1275;23027;-61
2022/04/14 03:03:37;;;;;;;3.10;1.00;;;;;;;5.24;73.26;99804.58;109519;1274;22657;-60
2022/04/14 03:06:05;;;;;;;2.90;1.10;;;;;;;5.23;73.11;99803.71;109495;1275;22404;-61
2022/04/14 03:08:34;;;;;;;2.60;1.10;;;;;;;5.23;72.92;99795.36;109508;1274;22505;-60
2022/04/14 03:11:02;;;;;;;1.70;1.00;;;;;;;5.22;72.68;99805.38;109399;1276;22410;-61
2022/04/14 03:13:31;;;;;;;3.50;0.80;;;;;;;5.22;72.73;99805.20;109255;1276;22433;-60
2022/04/14 03:15:59;;;;;;;3.40;1.40;;;;;;;5.22;72.67;99812.85;109590;1274;22389;-60
2022/04/14 03:18:43;;;;;;;2.10;1.00;;;;;;;5.23;72.87;99810.31;109548;1274;22380;-60
2022/04/14 03:21:11;;;;;;;3.00;0.90;;;;;;;5.24;72.72;99814.67;109519;1274;22399;-60
2022/04/14 03:23:51;;;;;;;6.00;1.10;;;;;;;5.24;73.06;99814.01;109565;1273;23887;-60
2022/04/14 03:26:19;;;;;;;4.90;1.50;;;;;;;5.26;72.70;99816.13;109551;1274;22352;-60
2022/04/14 03:28:48;;;;;;;2.30;1.30;;;;;;;5.28;72.90;99814.37;109565;1274;22517;-60
2022/04/14 03:31:16;;;;;;;4.20;1.00;;;;;;;5.29;72.40;99814.66;109558;1274;22366;-60
2022/04/14 03:33:45;;;;;;;2.80;1.10;;;;;;;5.28;72.85;99814.87;109565;1274;22523;-60
2022/04/14 03:36:13;;;;;;;4.50;1.20;;;;;;;5.30;72.63;99816.15;109575;1274;22391;-60
2022/04/14 03:38:42;;;;;;;4.50;2.10;;;;;;;5.31;72.61;99813.32;109554;1274;23481;-60
2022/04/14 03:41:13;;;;;;;3.60;1.40;;;;;;;5.31;72.50;99818.98;105779;1274;22629;-64
2022/04/14 03:44:01;;;;;;;;;;;;;;;5.33;72.47;99823.07;105268;1274;22572;-63
2022/04/14 03:46:31;;;;;;;2.20;1.70;;;;;;;5.33;72.02;99820.28;109547;1274;23411;-64
2022/04/14 03:49:08;;;;;;;2.10;1.30;;;;;;;5.32;71.84;99818.63;109437;1276;22424;-64
2022/04/14 03:51:36;;;;;;;3.40;1.20;;;;;;;5.33;71.89;99818.83;109573;1274;22252;-64
2022/04/14 03:54:04;;;;;;;2.50;1.10;;;;;;;5.34;72.04;99824.17;109535;1274;22394;-64
2022/04/14 03:56:36;;;;;;;3.10;1.40;;;;;;;5.34;71.88;99823.21;109579;1274;22494;-64
2022/04/14 03:59:04;;;;;;;2.00;1.00;;;;;;;5.36;72.29;99824.16;109440;1276;22430;-64
2022/04/14 04:01:34;;;;;;;2.20;1.20;;;;;;;5.37;71.76;99825.23;109576;1273;22375;-64
2022/04/14 04:04:02;;;;;;;4.20;1.20;;;;;;;5.37;71.84;99829.73;109572;1274;22572;-64
2022/04/14 04:06:31;;;;;;;3.00;1.20;;;;;;;5.38;71.67;99835.71;109571;1274;22472;-64
2022/04/14 04:09:18;;;;;;;;;;;;;;;5.39;71.91;99843.56;109496;1275;22480;-64
2022/04/14 04:11:47;;;;;;;2.30;1.00;;;;;;;5.39;71.54;99842.36;109581;1274;22441;-64
2022/04/14 04:14:35;;;;;;;4.70;1.50;;;;;;;5.39;71.73;99841.16;107751;1274;22587;-64
2022/04/14 04:17:04;;;;;;;6.40;1.30;;;;;;;5.41;71.78;99844.14;105259;1274;24279;-60
2022/04/14 04:19:52;;;;;;;5.60;1.30;;;;;;;5.41;71.50;99843.21;109394;1276;22410;-60
2022/04/14 04:22:20;;;;;;;3.70;1.60;;;;;;;5.40;71.37;99838.91;109585;1274;23187;-60
2022/04/14 04:24:54;;;;;;;4.90;2.10;;;;;;;5.39;71.48;99840.07;109535;1274;22436;-60
2022/04/14 04:27:22;;;;;;;10.00;2.80;;;;;;;5.38;71.48;99841.11;109572;1274;22411;-60
2022/04/14 04:29:50;;;;;;;6.90;2.10;;;;;;;5.38;71.47;99840.12;109566;1274;22424;-60
2022/04/14 04:32:19;;;;;;;5.90;2.60;;;;;;;5.37;71.39;99840.04;109532;1274;23191;-60
2022/04/14 04:34:47;;;;;;;6.20;2.70;;;;;;;5.35;71.42;99842.41;109580;1274;22413;-60
2022/04/14 04:37:16;;;;;;;5.20;2.30;;;;;;;5.35;71.56;99848.56;109595;1273;23107;-60
2022/04/14 04:39:44;;;;;;;7.20;2.90;;;;;;;5.36;71.64;99854.23;109551;1274;22438;-60
2022/04/14 04:42:12;;;;;;;7.10;2.30;;;;;;;5.36;71.35;99851.80;109564;1274;22399;-60
2022/04/14 04:44:54;;;;;;;6.10;2.50;;;;;;;5.38;71.51;99858.41;109572;1274;22433;-60
2022/04/14 04:47:22;;;;;;;7.80;2.70;;;;;;;5.38;71.41;99859.48;109570;1274;22399;-60
2022/04/14 04:49:55;;;;;;;4.80;2.10;;;;;;;5.39;71.67;99859.90;109580;1272;22439;-60
2022/04/14 04:52:23;;;;;;;6.10;1.90;;;;;;;5.40;71.67;99857.57;109586;1274;22547;-61
2022/04/14 04:54:52;;;;;;;3.70;1.70;;;;;;;5.42;71.63;99855.20;109566;1273;22438;-60
2022/04/14 04:57:20;;;;;;;6.00;2.30;;;;;;;5.43;71.28;99857.68;109605;1274;22249;-60
2022/04/14 04:59:48;;;;;;;7.90;2.60;;;;;;;5.46;71.62;99860.38;109598;1274;22524;-60
2022/04/14 05:02:17;;;;;;;5.60;2.30;;;;;;;5.50;71.59;99862.33;109575;1274;22430;-60
2022/04/14 05:04:45;;;;;;;6.90;2.40;;;;;;;5.52;71.26;99865.27;109600;1273;22246;-60
2022/04/14 05:09:23;;;;;;;8.20;2.70;;;;;;;5.55;71.12;99867.23;101953;1309;545180;-60
2022/04/14 05:12:12;;;;;;;6.90;2.10;;;;;;;5.56;70.56;99870.23;108551;1285;22396;-60
2022/04/14 05:14:42;;;;;;;9.60;3.10;;;;;;;5.57;70.88;99872.57;108634;1284;22473;-60
2022/04/14 05:17:30;;;;;;;5.80;2.80;;;;;;;5.60;70.82;99875.67;108687;1283;22358;-60
2022/04/14 05:19:58;;;;;;;4.50;1.80;;;;;;;5.60;70.76;99877.59;108697;1283;22425;-61
2022/04/14 05:22:46;;;;;;;;;;;;;;;5.61;70.63;99882.27;108742;1281;173275;-60
2022/04/14 05:25:14;;;;;;;;;;;;;;;5.62;70.62;99881.11;108986;1281;23202;-60
2022/04/14 05:27:42;;;;;;;;;;;;;;;5.61;70.32;99879.04;109089;1281;22465;-60
2022/04/14 05:30:30;;;;;;;15.50;5.60;;;;;;;5.62;70.68;99888.52;109020;1280;22450;-60
2022/04/14 05:32:59;;;;;;;24.20;7.70;;;;;;;5.62;70.45;99884.20;109025;1281;22527;-61
2022/04/14 05:35:28;;;;;;;27.20;8.90;;;;;;;5.63;70.80;99887.30;108812;1282;22425;-60
2022/04/14 05:37:56;;;;;;;30.50;9.40;;;;;;;5.64;70.51;99885.83;109054;1281;23136;-60
2022/04/14 05:40:24;;;;;;;25.10;8.40;;;;;;;5.66;70.44;99888.64;108920;1281;22464;-60
2022/04/14 05:42:52;;;;;;;28.90;8.50;;;;;;;5.68;70.43;99894.17;108715;1282;23269;-60
2022/04/14 05:45:22;;;;;;;23.60;8.10;;;;;;;5.69;70.13;99891.13;108911;1282;22394;-60
2022/04/14 05:47:50;;;;;;;26.10;8.20;;;;;;;5.69;69.77;99889.84;108846;1283;22434;-60
2022/04/14 05:50:20;;;;;;;25.90;7.80;;;;;;;5.70;70.30;99896.77;108801;1281;22434;-60
2022/04/14 05:52:48;;;;;;;22.80;6.10;;;;;;;5.73;70.05;99901.42;108895;1281;23083;-60
2022/04/14 05:55:16;;;;;;;20.50;7.10;;;;;;;5.74;69.63;99896.34;108932;1281;22254;-60
2022/04/14 05:57:44;;;;;;;23.00;7.90;;;;;;;5.75;69.44;99895.45;109047;1281;23173;-60
2022/04/14 06:00:13;;;;;;;18.70;6.70;;;;;;;5.78;69.58;99901.33;109015;1281;22415;-60
2022/04/14 06:02:41;;;;;;;18.50;6.30;;;;;;;5.80;69.76;99901.65;108457;1281;22421;-60
2022/04/14 06:05:10;;;;;;;17.10;6.70;;;;;;;5.82;69.58;99901.35;108900;1281;22622;-60
2022/04/14 06:07:39;;;;;;;12.50;5.00;;;;;;;5.84;69.39;99902.19;108883;1281;22500;-61
2022/04/14 06:10:07;;;;;;;21.50;6.50;;;;;;;5.84;69.61;99902.75;108870;1281;22388;-60
2022/04/14 06:12:36;;;;;;;14.00;5.30;;;;;;;5.86;69.56;99902.59;108854;1281;22428;-60
2022/04/14 06:15:05;;;;;;;10.90;4.40;;;;;;;5.87;69.16;99902.42;108919;1281;23075;-60
2022/04/14 06:17:49;;;;;;;12.40;4.50;;;;;;;5.88;69.11;99901.92;108854;1281;23215;-60
2022/04/14 06:20:17;;;;;;;14.00;4.80;;;;;;;5.90;69.22;99908.09;109506;1276;22535;-60
2022/04/14 06:23:05;;;;;;;8.60;3.80;;;;;;;5.95;69.22;99906.38;109456;1274;22396;-60
2022/04/14 06:25:33;;;;;;;15.10;4.10;;;;;;;5.97;68.80;99907.06;109429;1276;22467;-59
2022/04/14 06:28:04;;;;;;;10.70;4.20;;;;;;;5.99;68.93;99902.77;109503;1274;23170;-59
2022/04/14 06:30:32;;;;;;;12.20;3.70;;;;;;;6.01;68.55;99909.88;109545;1274;22512;-60
2022/04/14 06:33:02;;;;;;;13.60;2.90;;;;;;;6.02;68.29;99907.25;109367;1276;23446;-60
2022/04/14 06:35:34;;;;;;;8.60;3.90;;;;;;;6.05;68.55;99916.64;109557;1274;22437;-60
2022/04/14 06:38:03;;;;;;;9.70;4.60;;;;;;;6.08;68.02;99906.60;109535;1274;22345;-59
2022/04/14 06:40:31;;;;;;;12.70;5.80;;;;;;;6.08;68.09;99909.81;109520;1274;22450;-60
2022/04/14 06:43:01;;;;;;;14.50;8.50;;;;;;;6.10;67.93;99906.02;109522;1274;22455;-60
2022/04/14 06:45:31;;;;;;;17.70;11.50;;;;;;;6.12;67.63;99913.08;109568;1274;23176;-60
2022/04/14 06:48:00;;;;;;;9.10;5.60;;;;;;;6.13;67.89;99913.91;109532;1274;22468;-60
2022/04/14 06:50:44;;;;;;;5.30;2.80;;;;;;;6.14;67.47;99914.23;109527;1274;22455;-60
2022/04/14 06:53:12;;;;;;;12.50;3.50;;;;;;;6.16;67.63;99905.73;109532;1274;23297;-60
2022/04/14 06:55:45;;;;;;;6.40;2.80;;;;;;;6.15;67.13;99909.56;109494;1274;22683;-60
2022/04/14 06:58:33;;;;;;;4.40;1.80;;;;;;;6.16;67.29;99913.73;109501;1274;22402;-60
2022/04/14 07:01:01;;;;;;;5.00;1.70;;;;;;;6.19;67.50;99910.88;109568;1274;22478;-60
2022/04/14 07:03:30;;;;;;;10.10;2.40;;;;;;;6.21;67.23;99906.52;109498;1276;23160;-60
2022/04/14 07:06:00;;;;;;;8.20;3.30;;;;;;;6.26;67.23;99911.98;109558;1274;22349;-60
2022/04/14 07:08:31;;;;;;;6.80;2.20;;;;;;;6.29;67.35;99914.15;109476;1276;22304;-60
2022/04/14 07:11:00;;;;;;;5.50;2.20;;;;;;;6.32;66.97;99914.80;109540;1274;22258;-60
2022/04/14 07:13:30;;;;;;;6.00;1.90;;;;;;;6.33;67.15;99920.67;109544;1274;22447;-60
2022/04/14 07:16:00;;;;;;;9.20;2.30;;;;;;;6.34;67.02;99919.12;109588;1274;23546;-60
2022/04/14 07:18:35;;;;;;;7.60;1.90;;;;;;;6.34;66.98;99919.02;109573;1274;22395;-60
2022/04/14 07:21:05;;;;;;;7.70;3.40;;;;;;;6.35;66.54;99913.89;109561;1274;22256;-60
2022/04/14 07:23:45;;;;;;;5.10;2.40;;;;;;;6.36;66.94;99916.91;109506;1277;23644;-60
2022/04/14 07:26:13;;;;;;;3.80;1.70;;;;;;;6.38;66.54;99918.77;107618;1274;24547;-64
2022/04/14 07:28:42;;;;;;;6.30;2.60;;;;;;;6.42;66.48;99913.67;109372;1276;22564;-64
2022/04/14 07:31:10;;;;;;;5.60;2.40;;;;;;;6.43;66.40;99908.26;109517;1276;23366;-64
2022/04/14 07:33:39;;;;;;;6.00;2.80;;;;;;;6.46;66.15;99914.36;109559;1274;22451;-64
2022/04/14 07:36:07;;;;;;;7.20;3.10;;;;;;;6.50;66.33;99910.16;109504;1274;22441;-64
2022/04/14 07:38:55;;;;;;;8.10;2.40;;;;;;;6.54;66.35;99911.27;109541;1274;22472;-64
2022/04/14 07:41:24;;;;;;;5.10;2.30;;;;;;;6.59;66.14;99913.29;109546;1274;22501;-64
2022/04/14 07:43:54;;;;;;;6.60;2.80;;;;;;;6.64;66.03;99912.06;109437;1274;22386;-64
2022/04/14 07:46:22;;;;;;;6.10;3.50;;;;;;;6.67;65.78;99908.48;109608;1273;22407;-64
2022/04/14 07:48:51;;;;;;;13.30;5.60;;;;;;;6.71;65.94;99911.33;109599;1274;22453;-64
2022/04/14 07:51:19;;;;;;;10.90;3.80;;;;;;;6.76;65.67;99911.33;109589;1274;22411;-64
2022/04/14 07:53:52;;;;;;;12.00;3.90;;;;;;;6.82;65.67;99910.30;109595;1273;22237;-64
2022/04/14 07:56:22;;;;;;;11.80;4.10;;;;;;;6.86;65.44;99911.73;109505;1274;22869;-60
2022/04/14 07:58:50;;;;;;;9.20;3.90;;;;;;;6.89;64.88;99915.73;109601;1274;23287;-60
2022/04/14 08:01:18;;;;;;;6.30;3.40;;;;;;;6.91;64.77;99916.09;109605;1274;22354;-60
2022/04/14 08:03:50;;;;;;;9.50;4.20;;;;;;;6.92;64.68;99917.56;109563;1274;22510;-61
2022/04/14 08:06:19;;;;;;;9.30;2.60;;;;;;;6.97;64.63;99918.06;109608;1274;23214;-61
2022/04/14 08:08:48;;;;;;;8.40;2.60;;;;;;;7.00;64.49;99915.56;109566;1274;22437;-60
2022/04/14 08:11:17;;;;;;;7.50;2.90;;;;;;;7.02;63.88;99915.20;109564;1274;22562;-60
2022/04/14 08:13:45;;;;;;;25.40;10.50;;;;;;;7.04;64.25;99912.02;109554;1274;22475;-60
2022/04/14 08:16:14;;;;;;;13.90;6.20;;;;;;;7.08;64.34;99910.80;109619;1274;23243;-61
2022/04/14 08:18:42;;;;;;;10.30;5.40;;;;;;;7.14;64.54;99913.29;109716;1271;22404;-60
2022/04/14 08:21:10;;;;;;;20.20;6.30;;;;;;;7.21;64.07;99909.70;107426;1271;25269;-60
2022/04/14 08:23:51;;;;;;;14.80;6.30;;;;;;;7.27;64.04;99908.41;105340;1271;24135;-59
2022/04/14 08:26:21;;;;;;;27.30;13.20;;;;;;;7.34;63.77;99904.38;109754;1271;23245;-60
2022/04/14 08:28:49;;;;;;;17.70;6.20;;;;;;;7.40;63.23;99906.54;109767;1271;22419;-60
2022/04/14 08:31:17;;;;;;;20.80;7.60;;;;;;;7.44;62.76;99906.58;109785;1270;22449;-60
2022/04/14 08:33:51;;;;;;;24.20;13.00;;;;;;;7.48;62.59;99911.84;109763;1270;22506;-60
2022/04/14 08:36:21;;;;;;;20.20;9.00;;;;;;;7.52;62.23;99917.82;109732;1270;22432;-64
2022/04/14 08:38:50;;;;;;;27.60;12.80;;;;;;;7.54;61.76;99912.63;109745;1271;22400;-64
2022/04/14 08:41:20;;;;;;;11.20;5.20;;;;;;;7.55;61.94;99907.72;109757;1271;22422;-63
2022/04/14 08:44:07;;;;;;;10.00;4.00;;;;;;;7.60;62.34;99904.00;109762;1270;22379;-64
2022/04/14 08:46:35;;;;;;;11.20;3.40;;;;;;;7.65;61.85;99906.96;109761;1269;22244;-64
2022/04/14 08:49:03;;;;;;;8.40;2.90;;;;;;;7.67;61.56;99907.67;109718;1271;22464;-64
2022/04/14 08:51:36;;;;;;;10.60;3.10;;;;;;;7.68;61.56;99907.92;109754;1271;22407;-64
2022/04/14 08:54:13;;;;;;;7.80;3.00;;;;;;;7.69;61.86;99908.98;109762;1271;22452;-64
2022/04/14 08:56:41;;;;;;;5.80;2.70;;;;;;;7.71;61.51;99908.42;109754;1270;23149;-64
2022/04/14 08:59:10;;;;;;;7.70;3.20;;;;;;;7.72;61.22;99908.46;109757;1270;22486;-64
2022/04/14 09:01:38;;;;;;;8.60;3.20;;;;;;;7.74;61.07;99904.94;109607;1270;22508;-64
2022/04/14 09:04:09;;;;;;;11.80;3.90;;;;;;;7.79;60.80;99904.98;109702;1270;22551;-64
2022/04/14 09:06:38;;;;;;;6.00;2.70;;;;;;;7.82;60.78;99904.89;109787;1270;22376;-60
2022/04/14 09:09:06;;;;;;;5.10;3.20;;;;;;;7.84;60.45;99907.11;109736;1271;22479;-60
2022/04/14 09:11:42;;;;;;;9.10;3.10;;;;;;;7.88;60.54;99908.62;109698;1272;22380;-60
2022/04/14 09:14:11;;;;;;;7.10;2.80;;;;;;;7.92;60.44;99908.30;109724;1271;22393;-60
2022/04/14 09:16:39;;;;;;;13.50;3.10;;;;;;;7.97;59.53;99906.91;109759;1271;22847;-60
2022/04/14 09:19:07;;;;;;;6.90;3.10;;;;;;;8.03;59.02;99901.50;109771;1270;22390;-60
2022/04/14 09:21:58;;;;;;;;;;;;;;;8.13;58.51;99903.84;109734;1271;22494;-60
2022/04/14 09:24:39;;;;;;;8.80;3.20;;;;;;;8.21;58.16;99900.91;109777;1271;22450;-60
2022/04/14 09:27:07;;;;;;;8.80;3.10;;;;;;;8.30;57.98;99896.62;109737;1268;22575;-60
2022/04/14 09:29:46;;;;;;;11.00;3.40;;;;;;;8.36;57.77;99892.39;109691;1271;23172;-60
2022/04/14 09:32:32;;;;;;;9.20;3.20;;;;;;;8.44;58.03;99894.72;109610;1271;22349;-59
2022/04/14 09:35:20;;;;;;;7.20;2.60;;;;;;;8.54;57.00;99898.21;109776;1270;23071;-59
2022/04/14 09:38:07;;;;;;;4.90;2.50;;;;;;;8.64;55.10;99900.52;109787;1270;23193;-59
2022/04/14 09:40:35;;;;;;;6.80;3.00;;;;;;;8.75;53.54;99900.29;109787;1269;22512;-59
2022/04/14 09:43:04;;;;;;;9.80;3.50;;;;;;;8.84;53.45;99897.55;109681;1271;22452;-59
2022/04/14 09:45:35;;;;;;;9.20;3.60;;;;;;;8.94;53.60;99897.83;109783;1271;22328;-59
2022/04/14 09:48:05;;;;;;;6.70;2.90;;;;;;;9.04;53.02;99896.10;109786;1270;23599;-59
2022/04/14 09:50:36;;;;;;;5.80;2.20;;;;;;;9.15;52.15;99896.05;109773;1271;22433;-59
2022/04/14 09:53:07;;;;;;;5.90;2.70;;;;;;;9.26;51.62;99898.79;109794;1271;22235;-60
2022/04/14 09:55:40;;;;;;;5.60;2.70;;;;;;;9.39;51.47;99898.19;105465;1271;22643;-59
2022/04/14 09:58:12;;;;;;;3.10;1.80;;;;;;;9.50;50.26;99892.92;109749;1270;22435;-59
2022/04/14 10:00:44;;;;;;;3.80;1.60;;;;;;;9.62;49.09;99894.02;109782;1271;22544;-60
2022/04/14 10:03:22;;;;;;;3.00;1.20;;;;;;;9.73;48.21;99890.68;109781;1269;22528;-60
2022/04/14 10:05:54;;;;;;;2.70;1.40;;;;;;;9.82;48.15;99890.21;109768;1270;22373;-59
2022/04/14 10:08:27;;;;;;;2.10;1.20;;;;;;;9.92;47.42;99888.27;109782;1270;22548;-59
2022/04/14 10:11:05;;;;;;;1.70;0.90;;;;;;;10.02;47.27;99886.16;109793;1271;22465;-59
2022/04/14 10:13:34;;;;;;;1.00;0.80;;;;;;;10.14;45.75;99887.04;109755;1270;22963;-60
2022/04/14 10:16:03;;;;;;;1.20;0.80;;;;;;;10.23;44.32;99890.48;109793;1270;22421;-60
2022/04/14 10:18:31;;;;;;;1.10;0.70;;;;;;;10.30;44.21;99890.75;109790;1270;22462;-59
2022/04/14 10:20:59;;;;;;;0.80;0.70;;;;;;;10.35;43.96;99880.92;109770;1270;22387;-59
2022/04/14 10:23:28;;;;;;;1.80;0.90;;;;;;;10.43;42.49;99893.25;109756;1270;22417;-59
2022/04/14 10:25:56;;;;;;;1.10;0.80;;;;;;;10.52;40.59;99882.56;109794;1270;22515;-59
2022/04/14 10:28:24;;;;;;;1.40;0.70;;;;;;;10.57;39.82;99891.73;109770;1270;22510;-59
2022/04/14 10:30:55;;;;;;;1.40;0.90;;;;;;;10.60;39.95;99892.34;109559;1273;22421;-60
2022/04/14 10:33:24;;;;;;;1.90;0.80;;;;;;;10.60;40.76;99889.02;109773;1271;23780;-59
2022/04/14 10:35:53;;;;;;;1.20;0.80;;;;;;;10.60;39.67;99889.02;109804;1269;22548;-60
2022/04/14 10:38:32;;;;;;;0.50;0.50;;;;;;;10.62;40.02;99887.89;109804;1271;23122;-59
2022/04/14 10:41:13;;;;;;;0.60;0.60;;;;;;;10.69;39.33;99885.48;109753;1271;22403;-60
2022/04/14 10:43:41;;;;;;;0.90;0.70;;;;;;;10.76;39.20;99891.70;109724;1270;22390;-60
2022/04/14 10:46:21;;;;;;;2.00;0.90;;;;;;;10.80;39.27;99888.12;109792;1270;23081;-59
2022/04/14 10:48:50;;;;;;;7.80;0.80;;;;;;;10.85;39.21;99889.65;109788;1269;23142;-59
2022/04/14 10:51:26;;;;;;;1.50;1.10;;;;;;;10.87;38.97;99893.05;109677;1271;22428;-59
2022/04/14 10:53:59;;;;;;;5.80;3.50;;;;;;;10.87;39.30;99883.52;109785;1270;22514;-59
2022/04/14 10:56:49;;;;;;;1.80;1.20;;;;;;;10.91;39.88;99888.38;109784;1270;22256;-59
2022/04/14 10:59:17;;;;;;;2.00;0.80;;;;;;;11.00;39.77;99899.94;109758;1269;23263;-59
2022/04/14 11:01:45;;;;;;;7.80;5.60;;;;;;;11.05;38.94;99894.52;109764;1271;22433;-59
2022/04/14 11:04:34;;;;;;;9.80;6.60;;;;;;;11.05;38.65;99891.89;109787;1270;22493;-59
2022/04/14 11:07:21;;;;;;;3.50;1.90;;;;;;;11.03;38.97;99891.36;109775;1271;22561;-60
2022/04/14 11:09:50;;;;;;;2.30;1.10;;;;;;;11.05;38.67;99889.77;109811;1270;22542;-60
2022/04/14 11:12:41;;;;;;;4.00;0.90;;;;;;;11.10;38.84;99887.27;109734;1270;22247;-60
2022/04/14 11:15:12;;;;;;;22.00;12.70;;;;;;;11.17;38.23;99894.06;109766;1270;22556;-60
2022/04/14 11:18:04;;;;;;;20.30;10.10;;;;;;;11.21;38.44;99892.83;109785;1270;22431;-60
2022/04/14 11:20:44;;;;;;;9.00;3.90;;;;;;;11.26;38.77;99888.41;109790;1270;23726;-60
2022/04/14 11:23:20;;;;;;;4.60;2.00;;;;;;;11.33;38.46;99888.61;109808;1270;22381;-60
2022/04/14 11:25:53;;;;;;;2.30;1.10;;;;;;;11.36;38.24;99887.50;109803;1270;22444;-60
2022/04/14 11:28:27;;;;;;;1.40;0.90;;;;;;;11.36;38.11;99884.77;109770;1270;23201;-60
2022/04/14 11:30:58;;;;;;;2.20;0.80;;;;;;;11.36;37.88;99877.02;109760;1270;22422;-60
2022/04/14 11:33:28;;;;;;;1.80;0.90;;;;;;;11.40;38.25;99873.73;109778;1270;22450;-60
2022/04/14 11:36:13;;;;;;;2.60;0.70;;;;;;;11.48;38.58;99878.59;109777;1269;22429;-61
2022/04/14 11:39:07;;;;;;;3.50;1.10;;;;;;;11.60;38.04;99869.83;109799;1270;22367;-60
2022/04/14 11:41:42;;;;;;;3.00;1.10;;;;;;;11.71;37.71;99872.33;109768;1269;22545;-60
2022/04/14 11:44:13;;;;;;;3.60;0.80;;;;;;;11.81;37.07;99871.99;109702;1270;22390;-60
2022/04/14 11:46:46;;;;;;;3.20;1.20;;;;;;;11.86;36.93;99871.38;106976;1270;22748;-63
2022/04/14 11:49:26;;;;;;;2.00;0.80;;;;;;;11.91;36.45;99864.23;109799;1271;22366;-64
2022/04/14 11:51:56;;;;;;;1.20;0.70;;;;;;;11.97;36.38;99874.21;109757;1268;22469;-64
2022/04/14 11:54:27;;;;;;;1.10;0.80;;;;;;;12.00;36.80;99873.86;109795;1270;23034;-64